Alcester, United Kingdom
Current Conditions -  °F | °C
As of 9:20 PM on Monday 24 Nov 2014 (Local Time) from EGBB Reporting Station
Light Fog Light Fog  
Wind Chill:   Ceiling: Unl
Heat Index:   Visibility: 6mi
Dew Point:   Wind: 2mph
Humidity: 93%   Direction: 170°S
Pressure: 30.33"   Gusts: NA
Location:  52.22°N, 1.87°W
Report Text: EGBB 242120Z 17002KT 9999 BCFG NSC 01/00 Q1027
Loading
Personal Weather Stations






























Interactive Weather Map New forecast layout! Learn more

10-Day Weather Forecast

Advertisements
Track Severe Weather on mobile